sensor_id;sensor_type;location;lat;lon;timestamp;temperature;humidity
22850;DHT22;11591;44.792;10.358;2023-01-05T00:01:55;10.50;99.90
22850;DHT22;11591;44.792;10.358;2023-01-05T00:04:21;10.50;99.90
22850;DHT22;11591;44.792;10.358;2023-01-05T00:06:48;10.50;99.90
22850;DHT22;11591;44.792;10.358;2023-01-05T00:09:17;10.50;99.90
22850;DHT22;11591;44.792;10.358;2023-01-05T00:11:43;10.40;99.90
22850;DHT22;11591;44.792;10.358;2023-01-05T00:14:29;10.30;99.90
22850;DHT22;11591;44.792;10.358;2023-01-05T00:17:19;10.20;99.90
22850;DHT22;11591;44.792;10.358;2023-01-05T00:20:05;10.20;99.90
22850;DHT22;11591;44.792;10.358;2023-01-05T00:22:52;10.20;99.90
22850;DHT22;11591;44.792;10.358;2023-01-05T00:25:21;10.10;99.90
22850;DHT22;11591;44.792;10.358;2023-01-05T00:27:48;10.10;99.90
22850;DHT22;11591;44.792;10.358;2023-01-05T00:30:18;10.10;99.90
22850;DHT22;11591;44.792;10.358;2023-01-05T00:32:45;10.10;99.90
22850;DHT22;11591;44.792;10.358;2023-01-05T00:35:12;10.00;99.90
22850;DHT22;11591;44.792;10.358;2023-01-05T00:37:39;10.00;99.90
22850;DHT22;11591;44.792;10.358;2023-01-05T00:40:08;10.00;99.90
22850;DHT22;11591;44.792;10.358;2023-01-05T00:42:34;10.00;99.90
22850;DHT22;11591;44.792;10.358;2023-01-05T00:45:01;10.00;99.90
22850;DHT22;11591;44.792;10.358;2023-01-05T00:47:29;9.90;99.90
22850;DHT22;11591;44.792;10.358;2023-01-05T00:49:54;9.90;99.90
22850;DHT22;11591;44.792;10.358;2023-01-05T00:52:42;9.90;99.90
22850;DHT22;11591;44.792;10.358;2023-01-05T00:55:08;9.90;99.90
22850;DHT22;11591;44.792;10.358;2023-01-05T00:57:34;9.90;99.90
22850;DHT22;11591;44.792;10.358;2023-01-05T01:00:03;9.90;99.90
22850;DHT22;11591;44.792;10.358;2023-01-05T01:02:29;9.90;99.90
22850;DHT22;11591;44.792;10.358;2023-01-05T01:05:00;9.90;99.90
22850;DHT22;11591;44.792;10.358;2023-01-05T01:07:26;9.90;99.90
22850;DHT22;11591;44.792;10.358;2023-01-05T01:09:56;9.90;99.90
22850;DHT22;11591;44.792;10.358;2023-01-05T01:12:25;10.00;99.90
22850;DHT22;11591;44.792;10.358;2023-01-05T01:14:51;10.00;99.90
22850;DHT22;11591;44.792;10.358;2023-01-05T01:17:18;10.00;99.90
22850;DHT22;11591;44.792;10.358;2023-01-05T01:19:48;10.00;99.90
22850;DHT22;11591;44.792;10.358;2023-01-05T01:22:37;10.00;99.90
22850;DHT22;11591;44.792;10.358;2023-01-05T01:25:04;10.00;99.90
22850;DHT22;11591;44.792;10.358;2023-01-05T01:27:30;10.00;99.90
22850;DHT22;11591;44.792;10.358;2023-01-05T01:30:05;10.00;99.90
22850;DHT22;11591;44.792;10.358;2023-01-05T01:32:36;10.00;99.90
22850;DHT22;11591;44.792;10.358;2023-01-05T01:35:02;10.00;99.90
22850;DHT22;11591;44.792;10.358;2023-01-05T01:37:30;10.00;99.90
22850;DHT22;11591;44.792;10.358;2023-01-05T01:39:58;10.00;99.90
22850;DHT22;11591;44.792;10.358;2023-01-05T01:42:24;10.10;99.90
22850;DHT22;11591;44.792;10.358;2023-01-05T01:44:52;10.10;99.90
22850;DHT22;11591;44.792;10.358;2023-01-05T01:50:32;10.10;99.90
22850;DHT22;11591;44.792;10.358;2023-01-05T01:53:03;10.10;99.90
22850;DHT22;11591;44.792;10.358;2023-01-05T01:55:31;10.10;99.90
22850;DHT22;11591;44.792;10.358;2023-01-05T01:57:59;10.10;99.90
22850;DHT22;11591;44.792;10.358;2023-01-05T02:00:25;10.10;99.90
22850;DHT22;11591;44.792;10.358;2023-01-05T02:02:54;10.20;99.90
22850;DHT22;11591;44.792;10.358;2023-01-05T02:05:26;10.20;99.90
22850;DHT22;11591;44.792;10.358;2023-01-05T02:07:53;10.20;99.90
22850;DHT22;11591;44.792;10.358;2023-01-05T02:16:22;10.10;99.90
22850;DHT22;11591;44.792;10.358;2023-01-05T02:18:57;10.20;99.90
22850;DHT22;11591;44.792;10.358;2023-01-05T02:32:56;10.20;99.90
22850;DHT22;11591;44.792;10.358;2023-01-05T02:35:40;10.20;99.90
22850;DHT22;11591;44.792;10.358;2023-01-05T02:38:59;10.10;99.90
22850;DHT22;11591;44.792;10.358;2023-01-05T02:41:10;10.10;99.90
22850;DHT22;11591;44.792;10.358;2023-01-05T02:43:38;10.10;99.90
22850;DHT22;11591;44.792;10.358;2023-01-05T02:46:04;10.10;99.90
22850;DHT22;11591;44.792;10.358;2023-01-05T02:48:31;10.00;99.90
22850;DHT22;11591;44.792;10.358;2023-01-05T02:51:12;10.00;99.90
22850;DHT22;11591;44.792;10.358;2023-01-05T02:53:43;10.00;99.90
22850;DHT22;11591;44.792;10.358;2023-01-05T02:59:39;10.00;99.90
22850;DHT22;11591;44.792;10.358;2023-01-05T03:02:26;9.90;99.90
22850;DHT22;11591;44.792;10.358;2023-01-05T03:05:09;9.90;99.90
22850;DHT22;11591;44.792;10.358;2023-01-05T03:07:43;9.90;99.90
22850;DHT22;11591;44.792;10.358;2023-01-05T03:10:13;9.90;99.90
22850;DHT22;11591;44.792;10.358;2023-01-05T03:13:05;9.90;99.90
22850;DHT22;11591;44.792;10.358;2023-01-05T03:15:51;9.80;99.90
22850;DHT22;11591;44.792;10.358;2023-01-05T03:18:25;9.80;99.90
22850;DHT22;11591;44.792;10.358;2023-01-05T03:20:53;9.80;99.90
22850;DHT22;11591;44.792;10.358;2023-01-05T03:23:22;9.80;99.90
22850;DHT22;11591;44.792;10.358;2023-01-05T03:26:11;9.80;99.90
22850;DHT22;11591;44.792;10.358;2023-01-05T03:29:08;9.80;99.90
22850;DHT22;11591;44.792;10.358;2023-01-05T03:32:06;9.80;99.90
22850;DHT22;11591;44.792;10.358;2023-01-05T03:35:03;9.90;99.90
22850;DHT22;11591;44.792;10.358;2023-01-05T03:38:29;9.80;99.90
22850;DHT22;11591;44.792;10.358;2023-01-05T03:41:08;9.70;99.90
22850;DHT22;11591;44.792;10.358;2023-01-05T03:43:36;9.70;99.90
22850;DHT22;11591;44.792;10.358;2023-01-05T03:46:25;9.80;99.90
22850;DHT22;11591;44.792;10.358;2023-01-05T03:48:53;9.80;99.90
22850;DHT22;11591;44.792;10.358;2023-01-05T03:51:26;9.80;99.90
22850;DHT22;11591;44.792;10.358;2023-01-05T03:53:55;9.70;99.90
22850;DHT22;11591;44.792;10.358;2023-01-05T03:56:22;9.70;99.90
22850;DHT22;11591;44.792;10.358;2023-01-05T03:58:59;9.60;99.90
22850;DHT22;11591;44.792;10.358;2023-01-05T04:01:49;9.60;99.90
22850;DHT22;11591;44.792;10.358;2023-01-05T04:04:15;9.60;99.90
22850;DHT22;11591;44.792;10.358;2023-01-05T04:06:43;9.60;99.90
22850;DHT22;11591;44.792;10.358;2023-01-05T04:09:10;9.60;99.90
22850;DHT22;11591;44.792;10.358;2023-01-05T04:11:38;9.60;99.90
22850;DHT22;11591;44.792;10.358;2023-01-05T04:14:08;9.60;99.90
22850;DHT22;11591;44.792;10.358;2023-01-05T04:16:38;9.60;99.90
22850;DHT22;11591;44.792;10.358;2023-01-05T04:19:13;9.60;99.90
22850;DHT22;11591;44.792;10.358;2023-01-05T04:21:42;9.60;99.90
22850;DHT22;11591;44.792;10.358;2023-01-05T04:24:10;9.60;99.90
22850;DHT22;11591;44.792;10.358;2023-01-05T04:26:39;9.60;99.90
22850;DHT22;11591;44.792;10.358;2023-01-05T04:29:08;9.60;99.90
22850;DHT22;11591;44.792;10.358;2023-01-05T04:31:39;9.60;99.90
22850;DHT22;11591;44.792;10.358;2023-01-05T04:34:06;9.60;99.90
22850;DHT22;11591;44.792;10.358;2023-01-05T04:36:32;9.60;99.90
22850;DHT22;11591;44.792;10.358;2023-01-05T04:38:59;9.60;99.90
22850;DHT22;11591;44.792;10.358;2023-01-05T04:41:28;9.60;99.90
22850;DHT22;11591;44.792;10.358;2023-01-05T04:43:54;9.60;99.90
22850;DHT22;11591;44.792;10.358;2023-01-05T04:46:20;9.60;99.90
22850;DHT22;11591;44.792;10.358;2023-01-05T04:48:48;9.50;99.90
22850;DHT22;11591;44.792;10.358;2023-01-05T04:51:20;9.50;99.90
22850;DHT22;11591;44.792;10.358;2023-01-05T04:53:52;9.50;99.90
22850;DHT22;11591;44.792;10.358;2023-01-05T04:56:21;9.50;99.90
22850;DHT22;11591;44.792;10.358;2023-01-05T04:58:49;9.60;99.90
22850;DHT22;11591;44.792;10.358;2023-01-05T05:01:22;9.60;99.90
22850;DHT22;11591;44.792;10.358;2023-01-05T05:03:52;9.60;99.90
22850;DHT22;11591;44.792;10.358;2023-01-05T05:06:20;9.60;99.90
22850;DHT22;11591;44.792;10.358;2023-01-05T05:08:48;9.70;99.90
22850;DHT22;11591;44.792;10.358;2023-01-05T05:11:15;9.70;99.90
22850;DHT22;11591;44.792;10.358;2023-01-05T05:13:44;9.60;99.90
22850;DHT22;11591;44.792;10.358;2023-01-05T05:16:10;9.70;99.90
22850;DHT22;11591;44.792;10.358;2023-01-05T05:18:37;9.60;99.90
22850;DHT22;11591;44.792;10.358;2023-01-05T05:21:10;9.70;99.90
22850;DHT22;11591;44.792;10.358;2023-01-05T05:23:38;9.70;99.90
22850;DHT22;11591;44.792;10.358;2023-01-05T05:26:05;9.70;99.90
22850;DHT22;11591;44.792;10.358;2023-01-05T05:28:32;9.70;99.90
22850;DHT22;11591;44.792;10.358;2023-01-05T05:30:58;9.70;99.90
22850;DHT22;11591;44.792;10.358;2023-01-05T05:33:29;9.70;99.90
22850;DHT22;11591;44.792;10.358;2023-01-05T05:35:54;9.70;99.90
22850;DHT22;11591;44.792;10.358;2023-01-05T05:38:24;9.70;99.90
22850;DHT22;11591;44.792;10.358;2023-01-05T05:40:50;9.70;99.90
22850;DHT22;11591;44.792;10.358;2023-01-05T05:43:16;9.70;99.90
22850;DHT22;11591;44.792;10.358;2023-01-05T05:45:42;9.80;99.90
22850;DHT22;11591;44.792;10.358;2023-01-05T05:48:09;9.80;99.90
22850;DHT22;11591;44.792;10.358;2023-01-05T05:50:36;9.80;99.90
22850;DHT22;11591;44.792;10.358;2023-01-05T05:53:04;9.80;99.90
22850;DHT22;11591;44.792;10.358;2023-01-05T05:55:30;9.80;99.90
22850;DHT22;11591;44.792;10.358;2023-01-05T05:57:56;9.80;99.90
22850;DHT22;11591;44.792;10.358;2023-01-05T06:00:22;9.80;99.90
22850;DHT22;11591;44.792;10.358;2023-01-05T06:02:50;9.80;99.90
22850;DHT22;11591;44.792;10.358;2023-01-05T06:05:16;9.80;99.90
22850;DHT22;11591;44.792;10.358;2023-01-05T06:07:44;9.80;99.90
22850;DHT22;11591;44.792;10.358;2023-01-05T06:10:11;9.80;99.90
22850;DHT22;11591;44.792;10.358;2023-01-05T06:12:37;9.80;99.90
22850;DHT22;11591;44.792;10.358;2023-01-05T06:15:03;9.70;99.90
22850;DHT22;11591;44.792;10.358;2023-01-05T06:17:33;9.70;99.90
22850;DHT22;11591;44.792;10.358;2023-01-05T06:20:01;9.70;99.90
22850;DHT22;11591;44.792;10.358;2023-01-05T06:22:52;9.70;99.90
22850;DHT22;11591;44.792;10.358;2023-01-05T06:25:40;9.70;99.90
22850;DHT22;11591;44.792;10.358;2023-01-05T06:28:08;9.60;99.90
22850;DHT22;11591;44.792;10.358;2023-01-05T06:30:35;9.60;99.90
22850;DHT22;11591;44.792;10.358;2023-01-05T06:33:01;9.60;99.90
22850;DHT22;11591;44.792;10.358;2023-01-05T06:35:27;9.60;99.90
22850;DHT22;11591;44.792;10.358;2023-01-05T06:37:55;9.60;99.90
22850;DHT22;11591;44.792;10.358;2023-01-05T06:40:28;9.70;99.90
22850;DHT22;11591;44.792;10.358;2023-01-05T06:42:55;9.70;99.90
22850;DHT22;11591;44.792;10.358;2023-01-05T06:45:22;9.70;99.90
22850;DHT22;11591;44.792;10.358;2023-01-05T06:47:48;9.70;99.90
22850;DHT22;11591;44.792;10.358;2023-01-05T06:50:14;9.70;99.90
22850;DHT22;11591;44.792;10.358;2023-01-05T06:52:42;9.70;99.90
22850;DHT22;11591;44.792;10.358;2023-01-05T06:55:11;9.70;99.90
22850;DHT22;11591;44.792;10.358;2023-01-05T06:57:38;9.70;99.90
22850;DHT22;11591;44.792;10.358;2023-01-05T07:00:07;9.70;99.90
22850;DHT22;11591;44.792;10.358;2023-01-05T07:02:33;9.70;99.90
22850;DHT22;11591;44.792;10.358;2023-01-05T07:05:00;9.80;99.90
22850;DHT22;11591;44.792;10.358;2023-01-05T07:07:25;9.80;99.90
22850;DHT22;11591;44.792;10.358;2023-01-05T07:09:52;9.70;99.90
22850;DHT22;11591;44.792;10.358;2023-01-05T07:12:18;9.70;99.90
22850;DHT22;11591;44.792;10.358;2023-01-05T07:14:44;9.70;99.90
22850;DHT22;11591;44.792;10.358;2023-01-05T07:17:11;9.80;99.90
22850;DHT22;11591;44.792;10.358;2023-01-05T07:19:39;9.80;99.90
22850;DHT22;11591;44.792;10.358;2023-01-05T07:22:06;9.80;99.90
22850;DHT22;11591;44.792;10.358;2023-01-05T07:24:32;9.80;99.90
22850;DHT22;11591;44.792;10.358;2023-01-05T07:27:00;9.80;99.90
22850;DHT22;11591;44.792;10.358;2023-01-05T07:29:30;9.80;99.90
22850;DHT22;11591;44.792;10.358;2023-01-05T07:31:56;9.80;99.90
22850;DHT22;11591;44.792;10.358;2023-01-05T07:34:22;9.80;99.90
22850;DHT22;11591;44.792;10.358;2023-01-05T07:36:50;9.80;99.90
22850;DHT22;11591;44.792;10.358;2023-01-05T07:39:21;9.80;99.90
22850;DHT22;11591;44.792;10.358;2023-01-05T07:41:48;9.80;99.90
22850;DHT22;11591;44.792;10.358;2023-01-05T07:44:15;9.80;99.90
22850;DHT22;11591;44.792;10.358;2023-01-05T07:46:42;9.90;99.90
22850;DHT22;11591;44.792;10.358;2023-01-05T07:49:10;9.80;99.90
22850;DHT22;11591;44.792;10.358;2023-01-05T07:51:37;9.80;99.90
22850;DHT22;11591;44.792;10.358;2023-01-05T07:54:03;9.80;99.90
22850;DHT22;11591;44.792;10.358;2023-01-05T07:56:29;9.80;99.90
22850;DHT22;11591;44.792;10.358;2023-01-05T07:58:55;9.80;99.90
22850;DHT22;11591;44.792;10.358;2023-01-05T08:01:20;9.90;99.90
22850;DHT22;11591;44.792;10.358;2023-01-05T08:03:46;9.90;99.90
22850;DHT22;11591;44.792;10.358;2023-01-05T08:06:18;9.90;99.90
22850;DHT22;11591;44.792;10.358;2023-01-05T08:08:44;9.90;99.90
22850;DHT22;11591;44.792;10.358;2023-01-05T08:11:13;9.80;99.90
22850;DHT22;11591;44.792;10.358;2023-01-05T08:13:40;9.80;99.90
22850;DHT22;11591;44.792;10.358;2023-01-05T08:16:25;9.80;99.90
22850;DHT22;11591;44.792;10.358;2023-01-05T08:18:52;9.80;99.90
22850;DHT22;11591;44.792;10.358;2023-01-05T08:21:18;9.70;99.90
22850;DHT22;11591;44.792;10.358;2023-01-05T08:23:44;9.80;99.90
22850;DHT22;11591;44.792;10.358;2023-01-05T08:26:19;9.80;99.90
22850;DHT22;11591;44.792;10.358;2023-01-05T08:28:45;9.80;99.90
22850;DHT22;11591;44.792;10.358;2023-01-05T08:31:26;9.70;99.90
22850;DHT22;11591;44.792;10.358;2023-01-05T08:33:58;9.70;99.90
22850;DHT22;11591;44.792;10.358;2023-01-05T08:36:26;9.70;99.90
22850;DHT22;11591;44.792;10.358;2023-01-05T08:38:53;9.80;99.90
22850;DHT22;11591;44.792;10.358;2023-01-05T08:41:25;9.80;99.90
22850;DHT22;11591;44.792;10.358;2023-01-05T08:43:56;9.80;99.90
22850;DHT22;11591;44.792;10.358;2023-01-05T08:46:24;9.90;99.90
22850;DHT22;11591;44.792;10.358;2023-01-05T08:48:53;9.90;99.90
22850;DHT22;11591;44.792;10.358;2023-01-05T08:51:19;9.90;99.90
22850;DHT22;11591;44.792;10.358;2023-01-05T08:53:45;9.90;99.90
22850;DHT22;11591;44.792;10.358;2023-01-05T08:56:11;9.90;99.90
22850;DHT22;11591;44.792;10.358;2023-01-05T08:58:38;10.00;99.90
22850;DHT22;11591;44.792;10.358;2023-01-05T09:01:08;10.00;99.90
22850;DHT22;11591;44.792;10.358;2023-01-05T09:03:34;10.00;99.90
22850;DHT22;11591;44.792;10.358;2023-01-05T09:06:00;10.00;99.90
22850;DHT22;11591;44.792;10.358;2023-01-05T09:08:32;9.90;99.90
22850;DHT22;11591;44.792;10.358;2023-01-05T09:11:13;10.00;99.90
22850;DHT22;11591;44.792;10.358;2023-01-05T09:13:51;9.90;99.90
22850;DHT22;11591;44.792;10.358;2023-01-05T09:16:20;9.90;99.90
22850;DHT22;11591;44.792;10.358;2023-01-05T09:18:48;9.90;99.90
22850;DHT22;11591;44.792;10.358;2023-01-05T09:21:14;9.90;99.90
22850;DHT22;11591;44.792;10.358;2023-01-05T09:23:41;9.80;99.90
22850;DHT22;11591;44.792;10.358;2023-01-05T09:26:09;9.80;99.90
22850;DHT22;11591;44.792;10.358;2023-01-05T09:28:38;9.80;99.90
22850;DHT22;11591;44.792;10.358;2023-01-05T09:31:19;9.80;99.90
22850;DHT22;11591;44.792;10.358;2023-01-05T09:33:45;9.80;99.90
22850;DHT22;11591;44.792;10.358;2023-01-05T09:36:15;9.80;99.90
22850;DHT22;11591;44.792;10.358;2023-01-05T09:38:42;9.90;99.90
22850;DHT22;11591;44.792;10.358;2023-01-05T09:41:41;9.90;99.90
22850;DHT22;11591;44.792;10.358;2023-01-05T09:44:45;9.90;99.90
22850;DHT22;11591;44.792;10.358;2023-01-05T09:47:41;10.00;99.90
22850;DHT22;11591;44.792;10.358;2023-01-05T09:50:19;10.00;99.90
22850;DHT22;11591;44.792;10.358;2023-01-05T09:52:46;10.00;99.90
22850;DHT22;11591;44.792;10.358;2023-01-05T09:55:15;10.00;99.90
22850;DHT22;11591;44.792;10.358;2023-01-05T09:58:26;10.10;99.90
22850;DHT22;11591;44.792;10.358;2023-01-05T10:00:34;10.10;99.90
22850;DHT22;11591;44.792;10.358;2023-01-05T10:03:10;10.00;99.90
22850;DHT22;11591;44.792;10.358;2023-01-05T10:05:40;10.00;99.90
22850;DHT22;11591;44.792;10.358;2023-01-05T10:08:17;10.00;99.90
22850;DHT22;11591;44.792;10.358;2023-01-05T10:10:49;10.00;99.90
22850;DHT22;11591;44.792;10.358;2023-01-05T10:13:41;9.90;99.90
22850;DHT22;11591;44.792;10.358;2023-01-05T10:16:16;9.90;99.90
22850;DHT22;11591;44.792;10.358;2023-01-05T10:18:42;10.00;99.90
22850;DHT22;11591;44.792;10.358;2023-01-05T10:21:29;10.00;99.90
22850;DHT22;11591;44.792;10.358;2023-01-05T10:27:26;10.10;99.90
22850;DHT22;11591;44.792;10.358;2023-01-05T10:30:22;10.20;99.90
22850;DHT22;11591;44.792;10.358;2023-01-05T10:32:57;10.20;99.90
22850;DHT22;11591;44.792;10.358;2023-01-05T10:35:30;10.20;99.90
22850;DHT22;11591;44.792;10.358;2023-01-05T10:40:49;10.20;99.90
22850;DHT22;11591;44.792;10.358;2023-01-05T10:45:46;10.30;99.90
22850;DHT22;11591;44.792;10.358;2023-01-05T10:48:13;10.30;99.90
22850;DHT22;11591;44.792;10.358;2023-01-05T10:50:43;10.30;99.90
22850;DHT22;11591;44.792;10.358;2023-01-05T10:53:13;10.30;99.90
22850;DHT22;11591;44.792;10.358;2023-01-05T10:58:34;10.40;99.90
22850;DHT22;11591;44.792;10.358;2023-01-05T11:01:24;10.30;99.90
22850;DHT22;11591;44.792;10.358;2023-01-05T11:04:20;10.40;99.90
22850;DHT22;11591;44.792;10.358;2023-01-05T11:06:46;10.40;99.90
22850;DHT22;11591;44.792;10.358;2023-01-05T11:09:22;10.50;99.90
22850;DHT22;11591;44.792;10.358;2023-01-05T11:12:00;10.60;99.90
22850;DHT22;11591;44.792;10.358;2023-01-05T11:14:30;10.70;99.90
22850;DHT22;11591;44.792;10.358;2023-01-05T11:17:20;10.70;99.90
22850;DHT22;11591;44.792;10.358;2023-01-05T11:19:50;10.80;99.90
22850;DHT22;11591;44.792;10.358;2023-01-05T11:22:38;10.80;99.90
22850;DHT22;11591;44.792;10.358;2023-01-05T11:25:19;10.90;99.90
22850;DHT22;11591;44.792;10.358;2023-01-05T11:28:13;10.90;99.90
22850;DHT22;11591;44.792;10.358;2023-01-05T11:33:24;11.00;99.90
22850;DHT22;11591;44.792;10.358;2023-01-05T11:35:56;11.10;99.90
22850;DHT22;11591;44.792;10.358;2023-01-05T11:38:32;11.10;99.90
22850;DHT22;11591;44.792;10.358;2023-01-05T11:40:59;11.20;99.90
22850;DHT22;11591;44.792;10.358;2023-01-05T11:43:28;11.20;99.90
22850;DHT22;11591;44.792;10.358;2023-01-05T11:45:59;11.30;99.90
22850;DHT22;11591;44.792;10.358;2023-01-05T11:48:29;11.30;99.90
22850;DHT22;11591;44.792;10.358;2023-01-05T11:50:57;11.30;99.90
22850;DHT22;11591;44.792;10.358;2023-01-05T11:53:44;11.30;99.90
22850;DHT22;11591;44.792;10.358;2023-01-05T11:56:23;11.30;99.90
22850;DHT22;11591;44.792;10.358;2023-01-05T11:58:51;11.30;99.90
22850;DHT22;11591;44.792;10.358;2023-01-05T12:09:33;11.10;99.90
22850;DHT22;11591;44.792;10.358;2023-01-05T12:17:14;11.10;99.90
22850;DHT22;11591;44.792;10.358;2023-01-05T12:19:53;11.20;99.90
22850;DHT22;11591;44.792;10.358;2023-01-05T12:22:46;11.20;99.90
22850;DHT22;11591;44.792;10.358;2023-01-05T12:25:23;11.10;99.90
22850;DHT22;11591;44.792;10.358;2023-01-05T12:36:36;11.20;99.90
22850;DHT22;11591;44.792;10.358;2023-01-05T12:53:53;11.30;99.90
22850;DHT22;11591;44.792;10.358;2023-01-05T12:56:29;11.30;99.90
22850;DHT22;11591;44.792;10.358;2023-01-05T12:59:23;11.30;99.90
22850;DHT22;11591;44.792;10.358;2023-01-05T13:04:50;11.30;99.90
22850;DHT22;11591;44.792;10.358;2023-01-05T13:10:18;11.20;99.90
22850;DHT22;11591;44.792;10.358;2023-01-05T13:12:51;11.30;99.90
22850;DHT22;11591;44.792;10.358;2023-01-05T13:15:39;11.30;99.90
22850;DHT22;11591;44.792;10.358;2023-01-05T13:18:15;11.40;99.90
22850;DHT22;11591;44.792;10.358;2023-01-05T13:21:08;11.40;99.90
22850;DHT22;11591;44.792;10.358;2023-01-05T13:23:40;11.50;99.90
22850;DHT22;11591;44.792;10.358;2023-01-05T13:26:18;11.50;99.90
22850;DHT22;11591;44.792;10.358;2023-01-05T13:28:53;11.50;99.90
22850;DHT22;11591;44.792;10.358;2023-01-05T13:31:45;11.60;99.90
22850;DHT22;11591;44.792;10.358;2023-01-05T13:48:38;11.60;99.90
22850;DHT22;11591;44.792;10.358;2023-01-05T13:53:38;11.60;99.90
22850;DHT22;11591;44.792;10.358;2023-01-05T13:56:16;11.70;99.90
22850;DHT22;11591;44.792;10.358;2023-01-05T13:58:51;11.80;99.90
22850;DHT22;11591;44.792;10.358;2023-01-05T14:01:41;11.90;99.90
22850;DHT22;11591;44.792;10.358;2023-01-05T14:04:22;12.10;99.90
22850;DHT22;11591;44.792;10.358;2023-01-05T14:06:57;12.30;99.90
22850;DHT22;11591;44.792;10.358;2023-01-05T14:09:34;12.50;99.90
22850;DHT22;11591;44.792;10.358;2023-01-05T14:25:57;13.00;99.90
22850;DHT22;11591;44.792;10.358;2023-01-05T14:33:48;13.40;99.90
22850;DHT22;11591;44.792;10.358;2023-01-05T14:36:43;13.10;99.90
22850;DHT22;11591;44.792;10.358;2023-01-05T14:47:56;12.70;99.90
22850;DHT22;11591;44.792;10.358;2023-01-05T14:50:35;12.60;99.90
22850;DHT22;11591;44.792;10.358;2023-01-05T14:56:12;12.40;99.90
22850;DHT22;11591;44.792;10.358;2023-01-05T15:03:52;12.00;99.90
22850;DHT22;11591;44.792;10.358;2023-01-05T15:24:04;12.50;99.90
22850;DHT22;11591;44.792;10.358;2023-01-05T15:27:10;12.50;99.90
22850;DHT22;11591;44.792;10.358;2023-01-05T15:32:29;12.10;99.90
22850;DHT22;11591;44.792;10.358;2023-01-05T15:35:15;12.10;99.90
22850;DHT22;11591;44.792;10.358;2023-01-05T15:37:45;12.00;99.90
22850;DHT22;11591;44.792;10.358;2023-01-05T15:40:26;12.00;99.90
22850;DHT22;11591;44.792;10.358;2023-01-05T15:42:56;12.00;99.90
22850;DHT22;11591;44.792;10.358;2023-01-05T15:45:35;11.90;99.90
22850;DHT22;11591;44.792;10.358;2023-01-05T15:48:11;11.80;99.90
22850;DHT22;11591;44.792;10.358;2023-01-05T15:50:45;11.60;99.90
22850;DHT22;11591;44.792;10.358;2023-01-05T15:53:31;11.60;99.90
22850;DHT22;11591;44.792;10.358;2023-01-05T15:55:59;11.60;99.90
22850;DHT22;11591;44.792;10.358;2023-01-05T15:58:31;11.60;99.90
22850;DHT22;11591;44.792;10.358;2023-01-05T16:03:32;11.50;99.90
22850;DHT22;11591;44.792;10.358;2023-01-05T16:06:01;11.50;99.90
22850;DHT22;11591;44.792;10.358;2023-01-05T16:08:32;11.40;99.90
22850;DHT22;11591;44.792;10.358;2023-01-05T16:11:00;11.40;99.90
22850;DHT22;11591;44.792;10.358;2023-01-05T16:13:47;11.40;99.90
22850;DHT22;11591;44.792;10.358;2023-01-05T16:18:54;11.30;99.90
22850;DHT22;11591;44.792;10.358;2023-01-05T16:21:39;11.30;99.90
22850;DHT22;11591;44.792;10.358;2023-01-05T16:27:24;11.20;99.90
22850;DHT22;11591;44.792;10.358;2023-01-05T16:29:53;11.10;99.90
22850;DHT22;11591;44.792;10.358;2023-01-05T16:32:30;11.00;99.90
22850;DHT22;11591;44.792;10.358;2023-01-05T16:43:17;10.90;99.90
22850;DHT22;11591;44.792;10.358;2023-01-05T16:45:44;11.00;99.90
22850;DHT22;11591;44.792;10.358;2023-01-05T16:51:06;11.00;99.90
22850;DHT22;11591;44.792;10.358;2023-01-05T16:53:33;10.90;99.90
22850;DHT22;11591;44.792;10.358;2023-01-05T16:56:02;10.90;99.90
22850;DHT22;11591;44.792;10.358;2023-01-05T16:58:42;10.80;99.90
22850;DHT22;11591;44.792;10.358;2023-01-05T17:01:21;10.80;99.90
22850;DHT22;11591;44.792;10.358;2023-01-05T17:03:48;10.80;99.90
22850;DHT22;11591;44.792;10.358;2023-01-05T17:06:22;10.80;99.90
22850;DHT22;11591;44.792;10.358;2023-01-05T17:08:50;10.80;99.90
22850;DHT22;11591;44.792;10.358;2023-01-05T17:11:16;10.70;99.90
22850;DHT22;11591;44.792;10.358;2023-01-05T17:13:49;10.70;99.90
22850;DHT22;11591;44.792;10.358;2023-01-05T17:16:18;10.70;99.90
22850;DHT22;11591;44.792;10.358;2023-01-05T17:18:46;10.70;99.90
22850;DHT22;11591;44.792;10.358;2023-01-05T17:21:18;10.70;99.90
22850;DHT22;11591;44.792;10.358;2023-01-05T17:23:50;10.70;99.90
22850;DHT22;11591;44.792;10.358;2023-01-05T17:26:28;10.60;99.90
22850;DHT22;11591;44.792;10.358;2023-01-05T17:28:58;10.50;99.90
22850;DHT22;11591;44.792;10.358;2023-01-05T17:31:25;10.50;99.90
22850;DHT22;11591;44.792;10.358;2023-01-05T17:33:51;10.50;99.90
22850;DHT22;11591;44.792;10.358;2023-01-05T17:36:18;10.40;99.90
22850;DHT22;11591;44.792;10.358;2023-01-05T17:38:45;10.40;99.90
22850;DHT22;11591;44.792;10.358;2023-01-05T17:41:12;10.40;99.90
22850;DHT22;11591;44.792;10.358;2023-01-05T17:43:38;10.30;99.90
22850;DHT22;11591;44.792;10.358;2023-01-05T17:46:05;10.30;99.90
22850;DHT22;11591;44.792;10.358;2023-01-05T17:48:31;10.30;99.90
22850;DHT22;11591;44.792;10.358;2023-01-05T17:50:56;10.30;99.90
22850;DHT22;11591;44.792;10.358;2023-01-05T17:53:22;10.20;99.90
22850;DHT22;11591;44.792;10.358;2023-01-05T17:55:48;10.20;99.90
22850;DHT22;11591;44.792;10.358;2023-01-05T17:58:14;10.20;99.90
22850;DHT22;11591;44.792;10.358;2023-01-05T18:00:41;10.20;99.90
22850;DHT22;11591;44.792;10.358;2023-01-05T18:03:14;10.20;99.90
22850;DHT22;11591;44.792;10.358;2023-01-05T18:05:44;10.20;99.90
22850;DHT22;11591;44.792;10.358;2023-01-05T18:08:10;10.20;99.90
22850;DHT22;11591;44.792;10.358;2023-01-05T18:10:37;10.20;99.90
22850;DHT22;11591;44.792;10.358;2023-01-05T18:13:03;10.10;99.90
22850;DHT22;11591;44.792;10.358;2023-01-05T18:15:29;10.10;99.90
22850;DHT22;11591;44.792;10.358;2023-01-05T18:17:57;10.20;99.90
22850;DHT22;11591;44.792;10.358;2023-01-05T18:20:23;10.10;99.90
22850;DHT22;11591;44.792;10.358;2023-01-05T18:22:48;10.10;99.90
22850;DHT22;11591;44.792;10.358;2023-01-05T18:25:15;10.10;99.90
22850;DHT22;11591;44.792;10.358;2023-01-05T18:27:41;10.10;99.90
22850;DHT22;11591;44.792;10.358;2023-01-05T18:30:08;10.10;99.90
22850;DHT22;11591;44.792;10.358;2023-01-05T18:32:36;10.10;99.90
22850;DHT22;11591;44.792;10.358;2023-01-05T18:35:02;10.10;99.90
22850;DHT22;11591;44.792;10.358;2023-01-05T18:37:28;10.00;99.90
22850;DHT22;11591;44.792;10.358;2023-01-05T18:39:54;10.00;99.90
22850;DHT22;11591;44.792;10.358;2023-01-05T18:42:19;10.00;99.90
22850;DHT22;11591;44.792;10.358;2023-01-05T18:44:45;10.00;99.90
22850;DHT22;11591;44.792;10.358;2023-01-05T18:47:11;10.00;99.90